createdAt,value
2022-08-26T00:01:56.984Z,4.30
2022-08-26T00:04:26.000Z,4.18
2022-08-26T00:06:54.951Z,4.50
2022-08-26T00:09:24.740Z,5.35
2022-08-26T00:11:54.005Z,4.75
2022-08-26T00:14:27.092Z,5.18
2022-08-26T00:16:56.988Z,4.82
2022-08-26T00:19:24.582Z,4.43
2022-08-26T00:21:51.616Z,4.82
2022-08-26T00:24:20.986Z,5.10
2022-08-26T00:26:48.621Z,5.35
2022-08-26T00:29:17.690Z,5.47
2022-08-26T00:31:45.723Z,4.70
2022-08-26T00:34:15.307Z,4.65
2022-08-26T00:36:43.146Z,4.75
2022-08-26T00:39:10.562Z,4.78
2022-08-26T00:41:41.157Z,4.30
2022-08-26T00:44:11.206Z,5.03
2022-08-26T00:46:55.280Z,4.50
2022-08-26T00:49:28.160Z,4.72
2022-08-26T00:52:03.405Z,4.75
2022-08-26T00:54:35.300Z,4.40
2022-08-26T00:57:08.687Z,4.32
2022-08-26T00:59:47.020Z,4.63
2022-08-26T01:04:56.133Z,4.20
2022-08-26T01:07:30.154Z,4.57
2022-08-26T01:10:01.010Z,5.50
2022-08-26T01:12:31.840Z,5.30
2022-08-26T01:14:59.060Z,5.28
2022-08-26T01:17:26.402Z,4.75
2022-08-26T01:20:12.798Z,4.75
2022-08-26T01:23:03.230Z,4.72
2022-08-26T01:25:34.136Z,4.50
2022-08-26T01:28:05.838Z,4.43
2022-08-26T01:30:35.590Z,4.90
2022-08-26T01:33:05.901Z,4.60
2022-08-26T01:35:33.570Z,4.47
2022-08-26T01:38:02.443Z,5.20
2022-08-26T01:40:33.956Z,5.40
2022-08-26T01:43:02.262Z,4.50
2022-08-26T01:45:33.132Z,4.32
2022-08-26T01:48:04.396Z,4.57
2022-08-26T01:53:06.065Z,4.43
2022-08-26T01:55:35.605Z,4.82
2022-08-26T01:58:12.336Z,5.00
2022-08-26T02:00:40.315Z,4.18
2022-08-26T02:03:17.185Z,4.40
2022-08-26T02:05:56.427Z,5.00
2022-08-26T02:08:48.027Z,4.97
2022-08-26T02:11:18.427Z,5.72
2022-08-26T02:13:49.450Z,5.40
2022-08-26T02:16:21.398Z,5.40
2022-08-26T02:18:49.110Z,4.65
2022-08-26T02:21:20.376Z,4.90
2022-08-26T02:23:47.706Z,5.10
2022-08-26T02:26:19.382Z,5.50
2022-08-26T02:31:27.629Z,4.70
2022-08-26T02:33:55.387Z,5.03
2022-08-26T02:36:28.606Z,4.97
2022-08-26T02:38:56.308Z,5.10
2022-08-26T02:41:23.581Z,5.35
2022-08-26T02:43:51.611Z,5.60
2022-08-26T02:46:21.506Z,5.20
2022-08-26T02:48:55.093Z,4.65
2022-08-26T02:51:22.145Z,5.13
2022-08-26T02:53:50.092Z,4.53
2022-08-26T02:56:18.324Z,5.07
2022-08-26T02:58:45.842Z,5.45
2022-08-26T03:01:21.843Z,4.22
2022-08-26T03:03:49.493Z,4.55
2022-08-26T03:06:17.131Z,5.70
2022-08-26T03:08:44.427Z,4.53
2022-08-26T03:11:12.515Z,4.55
2022-08-26T03:13:40.689Z,4.93
2022-08-26T03:16:08.727Z,4.55
2022-08-26T03:18:36.935Z,4.72
2022-08-26T03:21:08.093Z,4.75
2022-08-26T03:23:35.345Z,4.57
2022-08-26T03:26:03.217Z,4.93
2022-08-26T03:28:30.576Z,4.78
2022-08-26T03:30:58.019Z,4.40
2022-08-26T03:33:26.144Z,4.93
2022-08-26T03:35:54.087Z,6.68
2022-08-26T03:38:25.129Z,5.10
2022-08-26T03:40:52.575Z,4.63
2022-08-26T03:43:19.723Z,4.93
2022-08-26T03:45:46.895Z,4.68
2022-08-26T03:48:14.535Z,4.68
2022-08-26T03:50:42.197Z,4.93
2022-08-26T03:53:12.869Z,4.90
2022-08-26T03:55:40.817Z,5.18
2022-08-26T03:58:07.652Z,4.40
2022-08-26T04:00:34.579Z,5.57
2022-08-26T04:03:03.280Z,5.15
2022-08-26T04:05:30.261Z,5.40
2022-08-26T04:07:57.537Z,5.90
2022-08-26T04:10:29.164Z,6.60
2022-08-26T04:12:59.122Z,6.13
2022-08-26T04:15:27.468Z,6.28
2022-08-26T04:17:55.958Z,6.45
2022-08-26T04:20:24.700Z,5.43
2022-08-26T04:22:52.973Z,5.20
2022-08-26T04:25:20.512Z,6.00
2022-08-26T04:27:48.262Z,5.82
2022-08-26T04:30:16.691Z,5.50
2022-08-26T04:32:44.938Z,5.28
2022-08-26T04:35:11.821Z,4.55
2022-08-26T04:37:39.029Z,4.88
2022-08-26T04:40:10.402Z,5.25
2022-08-26T04:42:37.378Z,5.53
2022-08-26T04:45:05.808Z,5.55
2022-08-26T04:47:36.980Z,5.30
2022-08-26T04:50:07.521Z,6.10
2022-08-26T04:52:36.257Z,5.85
2022-08-26T04:55:08.324Z,5.55
2022-08-26T04:57:36.405Z,5.85
2022-08-26T05:00:08.489Z,5.53
2022-08-26T05:02:36.311Z,6.65
2022-08-26T05:05:04.696Z,6.00
2022-08-26T05:07:31.895Z,6.45
2022-08-26T05:09:59.186Z,7.25
2022-08-26T05:12:27.870Z,6.88
2022-08-26T05:14:55.315Z,6.43
2022-08-26T05:17:22.731Z,6.05
2022-08-26T05:19:50.683Z,6.00
2022-08-26T05:22:17.519Z,5.82
2022-08-26T05:24:46.504Z,7.07
2022-08-26T05:27:14.287Z,5.38
2022-08-26T05:29:41.461Z,5.18
2022-08-26T05:32:08.403Z,5.13
2022-08-26T05:34:38.438Z,4.82
2022-08-26T05:37:06.693Z,5.05
2022-08-26T05:39:34.018Z,5.20
2022-08-26T05:42:01.516Z,5.47
2022-08-26T05:44:29.373Z,4.47
2022-08-26T05:47:16.444Z,4.72
2022-08-26T05:49:51.445Z,4.93
2022-08-26T05:52:19.874Z,5.63
2022-08-26T05:54:47.755Z,4.85
2022-08-26T05:57:15.769Z,5.28
2022-08-26T05:59:42.787Z,4.57
2022-08-26T06:02:09.957Z,5.43
2022-08-26T06:04:36.855Z,5.18
2022-08-26T06:07:04.291Z,6.45
2022-08-26T06:09:32.725Z,5.55
2022-08-26T06:12:02.071Z,4.95
2022-08-26T06:14:30.651Z,4.32
2022-08-26T06:16:57.689Z,4.95
2022-08-26T06:19:24.685Z,5.03
2022-08-26T06:21:54.698Z,4.55
2022-08-26T06:24:40.841Z,4.85
2022-08-26T06:27:13.427Z,4.40
2022-08-26T06:29:40.409Z,4.10
2022-08-26T06:32:08.753Z,4.47
2022-08-26T06:34:36.071Z,4.30
2022-08-26T06:37:03.510Z,4.20
2022-08-26T06:39:31.706Z,5.40
2022-08-26T06:42:00.613Z,4.18
2022-08-26T06:44:28.031Z,4.70
2022-08-26T06:46:55.037Z,4.80
2022-08-26T06:49:26.689Z,4.60
2022-08-26T06:51:58.230Z,4.38
2022-08-26T06:54:27.388Z,6.25
2022-08-26T06:56:56.953Z,4.55
2022-08-26T06:59:24.563Z,5.38
2022-08-26T07:01:52.365Z,5.35
2022-08-26T07:04:22.107Z,5.30
2022-08-26T07:06:52.305Z,4.43
2022-08-26T07:09:23.077Z,5.03
2022-08-26T07:11:51.567Z,5.80
2022-08-26T07:14:21.400Z,4.90
2022-08-26T07:16:50.468Z,4.50
2022-08-26T07:19:30.119Z,4.60
2022-08-26T07:21:59.373Z,4.57
2022-08-26T07:24:29.006Z,4.75
2022-08-26T07:27:03.315Z,5.35
2022-08-26T07:29:34.054Z,4.18
2022-08-26T07:32:01.747Z,5.55
2022-08-26T07:34:29.514Z,4.53
2022-08-26T07:36:57.118Z,4.88
2022-08-26T07:39:26.571Z,5.68
2022-08-26T07:41:54.044Z,5.05
2022-08-26T07:44:21.377Z,4.85
2022-08-26T07:46:53.237Z,4.93
2022-08-26T07:49:23.247Z,5.05
2022-08-26T07:51:51.391Z,5.00
2022-08-26T07:54:18.922Z,4.57
2022-08-26T07:56:46.960Z,5.68
2022-08-26T07:59:16.133Z,4.55
2022-08-26T08:01:44.725Z,5.40
2022-08-26T08:04:17.414Z,5.13
2022-08-26T08:06:46.046Z,4.53
2022-08-26T08:09:16.030Z,4.28
2022-08-26T08:11:44.962Z,4.97
2022-08-26T08:14:13.139Z,4.68
2022-08-26T08:16:46.105Z,5.25
2022-08-26T08:19:15.137Z,5.05
2022-08-26T08:21:43.614Z,5.68
2022-08-26T08:24:11.442Z,5.43
2022-08-26T08:26:39.200Z,4.93
2022-08-26T08:29:08.390Z,4.60
2022-08-26T08:34:23.938Z,5.38
2022-08-26T08:36:53.384Z,5.28
2022-08-26T08:39:21.938Z,5.65
2022-08-26T08:41:55.608Z,5.13
2022-08-26T08:47:05.014Z,4.57
2022-08-26T08:49:34.540Z,5.25
2022-08-26T08:52:19.519Z,5.07
2022-08-26T08:54:46.875Z,4.63
2022-08-26T08:57:26.601Z,4.90
2022-08-26T09:00:08.571Z,4.80
2022-08-26T09:02:50.968Z,5.00
2022-08-26T09:05:30.058Z,5.60
2022-08-26T09:08:06.578Z,4.70
2022-08-26T09:10:38.526Z,4.75
2022-08-26T09:13:09.426Z,5.07
2022-08-26T09:15:52.679Z,4.95
2022-08-26T09:18:55.319Z,4.72
2022-08-26T09:21:24.012Z,4.93
2022-08-26T09:23:55.757Z,5.25
2022-08-26T09:26:41.085Z,4.47
2022-08-26T09:29:18.388Z,4.53
2022-08-26T09:31:45.805Z,4.72
2022-08-26T09:34:21.404Z,4.40
2022-08-26T09:36:54.197Z,4.55
2022-08-26T09:39:24.040Z,5.13
2022-08-26T09:42:21.018Z,4.97
2022-08-26T09:44:58.467Z,4.28
2022-08-26T09:47:52.572Z,5.28
2022-08-26T09:50:50.866Z,4.50
2022-08-26T09:53:40.474Z,4.43
2022-08-26T09:56:12.474Z,4.50
2022-08-26T09:58:41.940Z,4.53
2022-08-26T10:01:36.007Z,5.63
2022-08-26T10:04:11.012Z,4.30
2022-08-26T10:07:02.316Z,4.25
2022-08-26T10:09:35.566Z,5.03
2022-08-26T10:12:12.061Z,3.92
2022-08-26T10:17:50.008Z,4.05
2022-08-26T10:20:24.041Z,4.13
2022-08-26T10:23:14.068Z,5.32
2022-08-26T10:25:58.927Z,4.70
2022-08-26T10:28:41.403Z,4.82
2022-08-26T10:31:29.278Z,3.97
2022-08-26T10:34:00.059Z,4.57
2022-08-26T10:37:14.680Z,4.35
2022-08-26T10:39:43.834Z,4.72
2022-08-26T10:42:25.631Z,4.43
2022-08-26T10:45:03.283Z,4.80
2022-08-26T10:47:38.430Z,4.28
2022-08-26T10:50:05.842Z,4.47
2022-08-26T10:53:12.095Z,5.25
2022-08-26T10:55:51.816Z,4.70
2022-08-26T10:58:26.467Z,4.60
2022-08-26T11:01:23.909Z,5.85
2022-08-26T11:04:11.598Z,4.90
2022-08-26T11:06:39.345Z,4.78
2022-08-26T11:09:09.375Z,5.35
2022-08-26T11:11:42.070Z,4.95
2022-08-26T11:14:29.182Z,5.00
2022-08-26T11:16:58.934Z,5.03
2022-08-26T11:19:59.523Z,5.28
2022-08-26T11:22:36.402Z,5.15
2022-08-26T11:25:11.343Z,4.70
2022-08-26T11:27:38.942Z,5.45
2022-08-26T11:30:28.931Z,5.75
2022-08-26T11:32:58.689Z,4.65
2022-08-26T11:35:37.551Z,4.63
2022-08-26T11:38:45.049Z,5.18
2022-08-26T11:41:20.891Z,5.25
2022-08-26T11:43:52.023Z,4.38
2022-08-26T11:49:05.907Z,5.85
2022-08-26T11:51:40.089Z,4.45
2022-08-26T11:54:13.139Z,4.18
2022-08-26T11:56:42.225Z,4.38
2022-08-26T11:59:13.016Z,4.35
2022-08-26T12:01:44.554Z,5.05
2022-08-26T12:04:20.959Z,4.57
2022-08-26T12:06:51.231Z,5.40
2022-08-26T12:09:30.004Z,4.97
2022-08-26T12:12:15.507Z,5.13
2022-08-26T12:14:43.941Z,4.90
2022-08-26T12:17:16.169Z,4.97
2022-08-26T12:19:43.759Z,4.70
2022-08-26T12:22:34.510Z,5.82
2022-08-26T12:25:06.009Z,4.90
2022-08-26T12:27:40.245Z,4.88
2022-08-26T12:30:22.542Z,4.32
2022-08-26T12:33:19.326Z,4.95
2022-08-26T12:35:54.316Z,3.88
2022-08-26T12:38:24.991Z,3.95
2022-08-26T12:40:52.373Z,4.82
2022-08-26T12:43:38.919Z,5.07
2022-08-26T12:46:08.860Z,3.97
2022-08-26T12:48:38.764Z,4.70
2022-08-26T12:51:19.743Z,4.25
2022-08-26T12:53:47.009Z,4.43
2022-08-26T12:56:34.094Z,4.18
2022-08-26T12:59:23.473Z,4.65
2022-08-26T13:01:51.079Z,4.97
2022-08-26T13:04:38.744Z,5.15
2022-08-26T13:07:15.814Z,4.28
2022-08-26T13:09:43.134Z,5.50
2022-08-26T13:12:11.721Z,4.78
2022-08-26T13:14:40.561Z,4.90
2022-08-26T13:17:07.521Z,5.25
2022-08-26T13:19:34.393Z,4.88
2022-08-26T13:22:01.706Z,5.00
2022-08-26T13:24:33.024Z,4.97
2022-08-26T13:27:00.945Z,5.15
2022-08-26T13:29:28.639Z,4.97
2022-08-26T13:31:56.121Z,5.70
2022-08-26T13:34:24.747Z,6.60
2022-08-26T13:36:54.520Z,5.75
2022-08-26T13:39:22.700Z,5.38
2022-08-26T13:41:49.940Z,5.45
2022-08-26T13:44:17.546Z,5.40
2022-08-26T13:49:17.410Z,5.50
2022-08-26T13:51:44.985Z,5.25
2022-08-26T13:54:12.292Z,5.35
2022-08-26T13:56:39.437Z,5.63
2022-08-26T13:59:07.003Z,5.50
2022-08-26T14:01:35.531Z,5.93
2022-08-26T14:04:03.328Z,6.18
2022-08-26T14:06:30.711Z,5.85
2022-08-26T14:08:58.107Z,5.78
2022-08-26T14:11:25.415Z,5.25
2022-08-26T14:13:52.615Z,5.93
2022-08-26T14:16:25.121Z,5.72
2022-08-26T14:18:53.009Z,5.43
2022-08-26T14:21:20.870Z,4.90
2022-08-26T14:23:48.033Z,5.20
2022-08-26T14:26:29.453Z,5.50
2022-08-26T14:28:59.586Z,5.40
2022-08-26T14:31:29.421Z,4.97
2022-08-26T14:34:03.049Z,5.80
2022-08-26T14:36:34.145Z,5.93
2022-08-26T14:41:35.484Z,6.35
2022-08-26T14:44:10.414Z,5.55
2022-08-26T14:46:44.632Z,5.80
2022-08-26T14:49:12.634Z,5.38
2022-08-26T14:51:41.041Z,5.55
2022-08-26T14:54:11.981Z,5.65
2022-08-26T14:56:56.534Z,6.00
2022-08-26T14:59:26.406Z,5.53
2022-08-26T15:01:54.807Z,5.45
2022-08-26T15:04:23.336Z,5.38
2022-08-26T15:06:52.113Z,5.30
2022-08-26T15:09:19.271Z,6.20
2022-08-26T15:11:47.749Z,6.10
2022-08-26T15:14:19.675Z,5.28
2022-08-26T15:16:53.534Z,5.22
2022-08-26T15:19:22.662Z,6.22
2022-08-26T15:21:51.005Z,8.68
2022-08-26T15:24:21.406Z,6.43
2022-08-26T15:26:49.564Z,6.13
2022-08-26T15:29:17.331Z,5.78
2022-08-26T15:31:44.467Z,5.18
2022-08-26T15:34:16.506Z,5.60
2022-08-26T17:48:01.367Z,5.70
2022-08-26T17:50:28.553Z,6.53
2022-08-26T17:52:55.792Z,6.15
2022-08-26T17:55:22.740Z,5.97
2022-08-26T17:57:53.206Z,6.13
2022-08-26T18:00:22.959Z,6.20
2022-08-26T18:02:49.891Z,5.90
2022-08-26T18:05:17.540Z,7.45
2022-08-26T18:07:44.938Z,6.32
2022-08-26T18:10:15.473Z,5.55
2022-08-26T18:12:42.922Z,6.50
2022-08-26T18:15:11.288Z,6.15
2022-08-26T18:17:39.355Z,5.78
2022-08-26T18:20:09.437Z,6.68
2022-08-26T18:22:36.440Z,7.43
2022-08-26T18:25:05.085Z,6.53
2022-08-26T18:27:32.466Z,6.35
2022-08-26T18:29:59.464Z,6.88
2022-08-26T18:32:26.414Z,6.82
2022-08-26T18:34:53.734Z,6.03
2022-08-26T18:37:20.543Z,7.28
2022-08-26T18:39:47.376Z,6.53
2022-08-26T18:42:14.483Z,6.60
2022-08-26T18:44:41.488Z,6.15
2022-08-26T18:47:08.356Z,6.90
2022-08-26T18:49:35.414Z,6.28
2022-08-26T18:52:03.162Z,7.00
2022-08-26T18:54:30.558Z,6.50
2022-08-26T18:56:57.680Z,7.03
2022-08-26T18:59:27.953Z,6.68
2022-08-26T19:01:57.507Z,6.72
2022-08-26T19:04:25.304Z,6.97
2022-08-26T19:06:52.890Z,6.07
2022-08-26T19:09:20.873Z,6.75
2022-08-26T19:11:49.813Z,6.88
2022-08-26T19:14:17.173Z,6.20
2022-08-26T19:16:46.060Z,7.43
2022-08-26T19:19:14.815Z,7.25
2022-08-26T19:21:42.104Z,8.00
2022-08-26T19:24:15.378Z,7.45
2022-08-26T19:26:45.197Z,7.32
2022-08-26T19:29:12.785Z,7.75
2022-08-26T19:31:39.952Z,7.13
2022-08-26T19:34:09.444Z,6.72
2022-08-26T19:36:36.597Z,6.95
2022-08-26T19:39:06.477Z,7.68
2022-08-26T19:41:38.006Z,6.97
2022-08-26T19:44:12.926Z,7.38
2022-08-26T19:46:40.640Z,7.72
2022-08-26T19:49:07.625Z,8.00
2022-08-26T19:51:36.416Z,7.20
2022-08-26T19:54:03.721Z,7.40
2022-08-26T19:56:30.616Z,7.50
2022-08-26T19:58:57.579Z,7.40
2022-08-26T20:01:25.613Z,6.97
2022-08-26T20:03:52.993Z,7.40
2022-08-26T20:06:20.314Z,7.80
2022-08-26T20:08:50.833Z,7.53
2022-08-26T20:11:20.767Z,7.90
2022-08-26T20:13:48.301Z,6.88
2022-08-26T20:16:16.995Z,7.53
2022-08-26T20:19:04.063Z,6.80
2022-08-26T20:21:35.665Z,6.80
2022-08-26T20:24:11.682Z,7.95
2022-08-26T20:26:41.551Z,7.70
2022-08-26T20:29:10.392Z,7.63
2022-08-26T20:31:38.163Z,8.55
2022-08-26T20:34:06.805Z,7.93
2022-08-26T20:36:34.194Z,7.63
2022-08-26T20:39:01.380Z,7.53
2022-08-26T20:41:28.757Z,7.72
2022-08-26T20:43:56.204Z,8.48
2022-08-26T20:46:25.066Z,7.65
2022-08-26T20:48:53.986Z,7.45
2022-08-26T20:51:23.627Z,7.32
2022-08-26T20:53:51.023Z,8.02
2022-08-26T20:56:23.681Z,7.93
2022-08-26T20:58:52.825Z,8.43
2022-08-26T21:01:24.285Z,7.90
2022-08-26T21:03:56.149Z,7.85
2022-08-26T21:06:24.085Z,8.48
2022-08-26T21:08:51.083Z,8.13
2022-08-26T21:11:18.349Z,8.52
2022-08-26T21:14:03.981Z,8.23
2022-08-26T21:16:32.512Z,8.52
2022-08-26T21:19:00.562Z,8.68
2022-08-26T21:21:27.661Z,8.55
2022-08-26T21:23:56.244Z,8.65
2022-08-26T21:26:24.064Z,8.18
2022-08-26T21:28:51.582Z,8.73
2022-08-26T21:31:21.253Z,8.52
2022-08-26T21:33:50.990Z,9.35
2022-08-26T21:36:18.645Z,8.77
2022-08-26T21:38:45.820Z,8.07
2022-08-26T21:41:18.689Z,8.75
2022-08-26T21:43:46.776Z,8.68
2022-08-26T21:46:17.000Z,8.05
2022-08-26T21:48:50.952Z,8.53
2022-08-26T21:51:20.911Z,9.15
2022-08-26T21:53:48.385Z,8.25
2022-08-26T21:56:17.920Z,8.13
2022-08-26T21:58:45.432Z,9.00
2022-08-26T22:01:15.893Z,8.90
2022-08-26T22:03:47.610Z,8.77
2022-08-26T22:06:22.986Z,8.85
2022-08-26T22:08:50.859Z,8.52
2022-08-26T22:11:19.179Z,8.30
2022-08-26T22:13:47.280Z,9.75
2022-08-26T22:16:14.737Z,9.13
2022-08-26T22:18:45.732Z,8.57
2022-08-26T22:21:19.222Z,8.30
2022-08-26T22:23:47.279Z,8.63
2022-08-26T22:26:23.379Z,8.35
2022-08-26T22:28:55.560Z,8.85
2022-08-26T22:31:36.909Z,9.10
2022-08-26T22:34:10.892Z,8.77
2022-08-26T22:36:43.134Z,8.63
2022-08-26T22:39:14.395Z,8.60
2022-08-26T22:41:43.472Z,9.35
2022-08-26T22:44:11.921Z,8.13
2022-08-26T22:46:41.629Z,8.60
2022-08-26T22:49:11.438Z,8.88
2022-08-26T22:51:38.728Z,9.02
2022-08-26T22:54:05.942Z,9.02
2022-08-26T22:56:32.895Z,8.90
2022-08-26T22:58:59.861Z,8.75
2022-08-26T23:01:27.044Z,8.15
2022-08-26T23:03:54.184Z,8.50
2022-08-26T23:06:21.047Z,8.75
2022-08-26T23:08:48.310Z,8.68
2022-08-26T23:11:15.609Z,8.02
2022-08-26T23:13:42.633Z,8.73
2022-08-26T23:16:12.101Z,8.30
2022-08-26T23:18:40.976Z,8.73
2022-08-26T23:21:08.522Z,7.63
2022-08-26T23:23:38.410Z,8.85
2022-08-26T23:26:08.025Z,9.15
2022-08-26T23:28:36.982Z,8.43
2022-08-26T23:31:05.424Z,7.80
2022-08-26T23:33:50.812Z,9.00
2022-08-26T23:36:18.511Z,8.57
2022-08-26T23:38:52.789Z,8.93
2022-08-26T23:41:24.235Z,9.00
2022-08-26T23:43:51.903Z,8.48
2022-08-26T23:46:19.819Z,8.65
2022-08-26T23:48:47.581Z,8.82
2022-08-26T23:51:33.249Z,8.32
2022-08-26T23:54:00.463Z,8.55
2022-08-26T23:56:27.570Z,9.55
2022-08-26T23:58:56.551Z,8.90
